createdAt,value
2022-08-19T00:00:11.816Z,74.81
2022-08-19T00:02:59.784Z,74.74
2022-08-19T00:05:27.751Z,74.89
2022-08-19T00:07:55.587Z,74.94
2022-08-19T00:10:25.608Z,74.99
2022-08-19T00:12:53.921Z,75.06
2022-08-19T00:15:23.024Z,75.11
2022-08-19T00:17:51.337Z,75.21
2022-08-19T00:20:22.051Z,75.08
2022-08-19T00:22:50.011Z,75.19
2022-08-19T00:25:18.179Z,75.22
2022-08-19T00:28:00.247Z,75.16
2022-08-19T00:30:31.390Z,75.36
2022-08-19T00:32:59.696Z,75.21
2022-08-19T00:35:28.433Z,75.33
2022-08-19T00:37:57.568Z,75.32
2022-08-19T00:40:26.183Z,75.38
2022-08-19T00:42:55.043Z,75.34
2022-08-19T00:45:29.259Z,75.38
2022-08-19T00:47:57.565Z,75.59
2022-08-19T00:50:25.764Z,75.62
2022-08-19T00:52:54.800Z,75.91
2022-08-19T00:55:26.669Z,75.84
2022-08-19T00:58:00.637Z,75.57
2022-08-19T01:00:29.558Z,75.73
2022-08-19T01:02:57.757Z,75.85
2022-08-19T01:05:30.001Z,75.86
2022-08-19T01:08:01.759Z,75.98
2022-08-19T01:10:40.442Z,75.97
2022-08-19T01:13:08.907Z,76.19
2022-08-19T01:15:44.965Z,76.20
2022-08-19T01:18:16.309Z,76.46
2022-08-19T01:20:44.616Z,76.63
2022-08-19T01:23:13.828Z,76.71
2022-08-19T01:25:52.404Z,76.83
2022-08-19T01:28:40.030Z,77.02
2022-08-19T01:31:27.019Z,77.07
2022-08-19T01:33:57.775Z,77.25
2022-08-19T01:36:27.161Z,77.33
2022-08-19T01:38:56.377Z,77.44
2022-08-19T01:41:24.688Z,77.47
2022-08-19T01:44:13.720Z,77.70
2022-08-19T01:46:43.516Z,77.72
2022-08-19T01:49:11.757Z,77.86
2022-08-19T01:51:40.578Z,77.91
2022-08-19T01:54:22.888Z,77.99
2022-08-19T01:57:02.618Z,77.99
2022-08-19T01:59:32.288Z,78.05
2022-08-19T02:02:00.302Z,78.23
2022-08-19T02:04:28.241Z,77.99
2022-08-19T02:06:56.277Z,78.32
2022-08-19T02:09:24.196Z,78.18
2022-08-19T02:11:52.490Z,78.20
2022-08-19T02:14:20.441Z,78.33
2022-08-19T02:16:48.903Z,78.42
2022-08-19T02:19:16.833Z,78.49
2022-08-19T02:21:45.056Z,78.42
2022-08-19T03:49:01.898Z,79.61
2022-08-19T03:51:33.987Z,79.61
2022-08-19T03:54:05.752Z,79.62
2022-08-19T03:56:36.319Z,79.75
2022-08-19T03:59:06.546Z,79.83
2022-08-19T04:01:36.413Z,79.72
2022-08-19T04:04:04.983Z,79.74
2022-08-19T04:06:36.296Z,79.76
2022-08-19T04:09:12.118Z,79.95
2022-08-19T04:11:45.102Z,79.80
2022-08-19T04:14:19.595Z,79.92
2022-08-19T04:16:49.216Z,79.91
2022-08-19T04:19:18.521Z,79.80
2022-08-19T04:21:51.416Z,79.90
2022-08-19T04:24:20.406Z,79.83
2022-08-19T04:26:49.247Z,79.72
2022-08-19T04:29:26.366Z,79.87
2022-08-19T04:31:56.664Z,79.99
2022-08-19T04:34:27.293Z,79.90
2022-08-19T04:36:57.140Z,80.00
2022-08-19T04:39:48.502Z,79.71
2022-08-19T04:42:38.463Z,79.71
2022-08-19T04:45:15.311Z,79.79
2022-08-19T04:47:48.282Z,79.66
2022-08-19T04:50:27.799Z,79.70
2022-08-19T04:52:57.513Z,79.55
2022-08-19T04:55:28.949Z,79.64
2022-08-19T04:57:56.864Z,79.55
2022-08-19T05:00:24.946Z,79.72
2022-08-19T05:02:52.967Z,79.43
2022-08-19T05:05:21.954Z,79.71
2022-08-19T05:07:49.887Z,79.60
2022-08-19T05:10:18.650Z,79.74
2022-08-19T05:12:46.811Z,79.68
2022-08-19T05:15:14.898Z,79.72
2022-08-19T05:18:02.832Z,79.85
2022-08-19T05:20:49.769Z,79.45
2022-08-19T05:23:22.167Z,79.27
2022-08-19T05:25:51.727Z,79.19
2022-08-19T05:28:21.490Z,79.17
2022-08-19T05:30:51.990Z,78.93
2022-08-19T05:33:20.399Z,78.95
2022-08-19T05:35:50.505Z,78.80
2022-08-19T05:38:18.990Z,78.71
2022-08-19T05:40:49.271Z,78.47
2022-08-19T05:43:17.818Z,78.26
2022-08-19T05:45:45.734Z,77.65
2022-08-19T05:48:14.355Z,77.49
2022-08-19T05:50:43.089Z,77.08
2022-08-19T05:53:11.130Z,77.18
2022-08-19T05:55:42.298Z,77.08
2022-08-19T05:58:11.303Z,76.79
2022-08-19T06:00:39.225Z,76.29
2022-08-19T06:03:11.392Z,76.16
2022-08-19T06:05:44.808Z,75.91
2022-08-19T06:08:33.767Z,75.92
2022-08-19T06:11:21.073Z,75.21
2022-08-19T06:13:59.717Z,75.18
2022-08-19T06:16:30.182Z,75.20
2022-08-19T06:19:01.611Z,75.05
2022-08-19T06:21:30.985Z,74.96
2022-08-19T06:23:59.767Z,74.85
2022-08-19T06:26:28.714Z,74.49
2022-08-19T06:28:56.728Z,73.90
2022-08-19T06:31:28.058Z,74.03
2022-08-19T06:33:56.302Z,74.08
2022-08-19T06:36:31.132Z,73.53
2022-08-19T06:39:00.135Z,73.34
2022-08-19T06:41:28.703Z,72.73
2022-08-19T06:43:57.426Z,72.83
2022-08-19T06:46:27.506Z,72.28
2022-08-19T06:48:55.937Z,71.42
2022-08-19T06:51:24.954Z,70.98
2022-08-19T06:53:55.684Z,70.96
2022-08-19T06:56:35.828Z,70.58
2022-08-19T06:59:07.146Z,70.06
2022-08-19T07:01:40.519Z,69.90
2022-08-19T07:04:12.111Z,69.02
2022-08-19T07:06:44.226Z,68.45
2022-08-19T07:09:18.367Z,68.49
2022-08-19T07:11:49.197Z,67.53
2022-08-19T07:14:20.291Z,67.68
2022-08-19T07:16:51.374Z,67.75
2022-08-19T07:19:20.570Z,67.06
2022-08-19T07:21:53.652Z,67.17
2022-08-19T07:24:26.226Z,66.13
2022-08-19T07:26:56.719Z,66.61
2022-08-19T07:29:25.789Z,66.02
2022-08-19T07:31:57.918Z,65.75
2022-08-19T07:34:30.424Z,65.74
2022-08-19T07:36:58.998Z,64.83
2022-08-19T07:39:30.540Z,64.72
2022-08-19T07:42:01.290Z,64.34
2022-08-19T07:44:29.508Z,64.15
2022-08-19T07:47:01.010Z,63.93
2022-08-19T07:49:29.506Z,63.95
2022-08-19T07:52:02.438Z,63.50
2022-08-19T07:54:35.342Z,62.94
2022-08-19T07:57:04.981Z,63.18
2022-08-19T07:59:32.885Z,62.45
2022-08-19T08:02:01.644Z,62.76
2022-08-19T08:04:49.819Z,62.21
2022-08-19T08:07:36.885Z,62.17
2022-08-19T08:10:20.835Z,62.01
2022-08-19T08:13:09.383Z,61.25
2022-08-19T08:15:42.872Z,60.72
2022-08-19T08:18:15.141Z,60.67
2022-08-19T08:20:43.248Z,60.54
2022-08-19T08:23:23.570Z,59.57
2022-08-19T08:25:53.490Z,59.31
2022-08-19T08:28:22.031Z,59.54
2022-08-19T08:30:51.626Z,59.66
2022-08-19T08:33:34.090Z,59.01
2022-08-19T08:36:06.175Z,59.11
2022-08-19T08:38:42.746Z,58.98
2022-08-19T08:41:38.490Z,59.63
2022-08-19T08:44:07.127Z,58.70
2022-08-19T08:46:52.772Z,58.50
2022-08-19T08:49:47.869Z,57.98
2022-08-19T08:52:33.319Z,58.74
2022-08-19T08:55:10.114Z,58.26
2022-08-19T08:57:56.181Z,57.42
2022-08-19T09:00:29.924Z,56.17
2022-08-19T09:03:16.451Z,56.72
2022-08-19T09:06:03.868Z,55.25
2022-08-19T09:08:41.329Z,54.62
2022-08-19T09:11:42.064Z,53.64
2022-08-19T09:14:51.748Z,53.32
2022-08-19T09:17:36.318Z,53.16
2022-08-19T09:20:15.688Z,54.04
2022-08-19T09:22:47.698Z,53.81
2022-08-19T09:25:26.702Z,53.77
2022-08-19T09:28:02.733Z,53.55
2022-08-19T09:30:42.912Z,53.81
2022-08-19T09:33:10.783Z,51.44
2022-08-19T09:35:49.798Z,51.46
2022-08-19T09:38:22.643Z,51.07
2022-08-19T09:40:51.040Z,50.87
2022-08-19T09:43:32.952Z,49.89
2022-08-19T09:46:06.674Z,49.56
2022-08-19T09:48:37.236Z,50.00
2022-08-19T09:51:17.694Z,49.22
2022-08-19T09:53:46.797Z,49.09
2022-08-19T09:56:16.204Z,49.18
2022-08-19T09:58:48.310Z,50.32
2022-08-19T10:01:21.840Z,49.72
2022-08-19T10:03:55.885Z,49.82
2022-08-19T10:06:43.873Z,48.93
2022-08-19T10:09:18.007Z,48.94
2022-08-19T10:12:04.065Z,48.50
2022-08-19T10:14:32.767Z,49.13
2022-08-19T10:17:04.696Z,49.29
2022-08-19T10:19:55.405Z,49.26
2022-08-19T10:22:25.600Z,49.25
2022-08-19T10:24:54.271Z,48.71
2022-08-19T10:27:22.825Z,48.60
2022-08-19T10:29:51.212Z,49.19
2022-08-19T10:32:19.465Z,49.41
2022-08-19T10:35:09.366Z,48.92
2022-08-19T10:37:57.544Z,48.58
2022-08-19T10:40:29.095Z,49.06
2022-08-19T10:42:57.177Z,49.43
2022-08-19T10:45:29.852Z,49.23
2022-08-19T10:48:01.096Z,48.75
2022-08-19T10:50:53.379Z,48.60
2022-08-19T10:53:26.773Z,48.69
2022-08-19T10:56:14.354Z,48.74
2022-08-19T10:59:10.610Z,48.92
2022-08-19T11:01:46.947Z,49.28
2022-08-19T11:04:28.884Z,49.07
2022-08-19T11:07:07.882Z,49.08
2022-08-19T11:09:40.963Z,48.46
2022-08-19T11:12:25.789Z,48.66
2022-08-19T11:15:18.510Z,48.72
2022-08-19T11:18:13.358Z,49.45
2022-08-19T11:21:22.341Z,49.21
2022-08-19T11:23:53.725Z,49.41
2022-08-19T11:26:22.917Z,49.32
2022-08-19T11:28:55.704Z,49.47
2022-08-19T11:31:34.167Z,49.46
2022-08-19T11:34:04.853Z,49.15
2022-08-19T11:36:48.337Z,49.11
2022-08-19T11:39:19.060Z,48.88
2022-08-19T11:41:47.808Z,48.92
2022-08-19T11:44:16.438Z,49.40
2022-08-19T11:46:47.700Z,48.69
2022-08-19T11:49:20.142Z,48.93
2022-08-19T11:51:51.106Z,47.97
2022-08-19T11:54:19.247Z,47.92
2022-08-19T11:57:18.075Z,48.20
2022-08-19T12:00:22.785Z,48.20
2022-08-19T12:02:50.896Z,47.74
2022-08-19T12:05:18.886Z,46.94
2022-08-19T12:08:09.327Z,46.30
2022-08-19T12:10:58.481Z,46.86
2022-08-19T12:13:26.734Z,47.09
2022-08-19T12:15:55.179Z,47.18
2022-08-19T12:18:23.921Z,46.70
2022-08-19T12:20:53.608Z,45.25
2022-08-19T12:23:22.122Z,46.25
2022-08-19T12:25:52.630Z,46.01
2022-08-19T12:28:23.948Z,45.19
2022-08-19T12:30:52.438Z,45.31
2022-08-19T12:33:25.129Z,45.47
2022-08-19T12:35:53.504Z,45.73
2022-08-19T12:38:24.718Z,45.82
2022-08-19T12:40:56.007Z,46.09
2022-08-19T12:43:26.355Z,45.95
2022-08-19T12:45:55.349Z,46.56
2022-08-19T12:48:33.674Z,46.68
2022-08-19T12:51:12.111Z,44.91
2022-08-19T12:53:40.925Z,45.46
2022-08-19T12:56:12.582Z,45.33
2022-08-19T12:58:50.318Z,45.08
2022-08-19T13:01:23.149Z,45.28
2022-08-19T13:03:53.656Z,45.55
2022-08-19T13:06:22.627Z,45.31
2022-08-19T13:08:51.096Z,45.05
2022-08-19T13:11:21.958Z,45.13
2022-08-19T13:13:52.162Z,44.85
2022-08-19T13:16:21.426Z,44.84
2022-08-19T13:18:53.061Z,44.78
2022-08-19T13:21:23.940Z,45.22
2022-08-19T13:23:53.436Z,45.43
2022-08-19T13:26:22.430Z,45.50
2022-08-19T13:29:09.407Z,44.52
2022-08-19T13:31:59.437Z,44.02
2022-08-19T13:34:35.120Z,44.02
2022-08-19T13:37:04.709Z,43.76
2022-08-19T13:39:34.144Z,43.84
2022-08-19T13:42:03.490Z,44.08
2022-08-19T13:44:33.025Z,43.88
2022-08-19T13:47:08.244Z,43.92
2022-08-19T13:49:37.474Z,43.63
2022-08-19T13:52:07.019Z,43.96
2022-08-19T13:54:34.846Z,43.93
2022-08-19T13:57:02.785Z,44.21
2022-08-19T13:59:30.710Z,43.88
2022-08-19T14:02:00.566Z,43.90
2022-08-19T14:04:28.887Z,44.23
2022-08-19T14:06:56.751Z,44.38
2022-08-19T14:09:24.622Z,43.80
2022-08-19T14:11:52.591Z,44.38
2022-08-19T14:14:20.602Z,44.56
2022-08-19T14:16:49.514Z,44.39
2022-08-19T14:19:17.366Z,44.22
2022-08-19T14:21:45.229Z,43.90
2022-08-19T14:24:13.350Z,43.45
2022-08-19T14:26:41.376Z,43.36
2022-08-19T14:29:09.131Z,43.08
2022-08-19T14:31:37.034Z,43.26
2022-08-19T14:34:05.240Z,43.66
2022-08-19T14:36:39.005Z,43.22
2022-08-19T14:39:07.381Z,43.33
2022-08-19T14:41:35.411Z,43.03
2022-08-19T14:44:03.295Z,43.39
2022-08-19T14:46:31.286Z,43.36
2022-08-19T14:48:59.924Z,43.62
2022-08-19T14:51:28.227Z,43.64
2022-08-19T14:53:56.589Z,42.66
2022-08-19T14:56:27.822Z,42.80
2022-08-19T14:58:56.383Z,42.66
2022-08-19T15:01:24.645Z,42.59
2022-08-19T15:04:12.660Z,42.70
2022-08-19T15:06:41.090Z,42.15
2022-08-19T15:09:10.208Z,42.08
2022-08-19T15:11:39.497Z,42.24
2022-08-19T15:14:08.084Z,42.41
2022-08-19T15:16:36.881Z,42.35
2022-08-19T15:19:07.580Z,41.77
2022-08-19T15:21:35.973Z,41.65
2022-08-19T15:24:06.104Z,41.84
2022-08-19T15:26:33.994Z,41.60
2022-08-19T15:29:03.404Z,41.09
2022-08-19T15:31:38.323Z,41.11
2022-08-19T15:34:07.865Z,40.85
2022-08-19T15:36:37.170Z,40.40
2022-08-19T15:39:07.688Z,40.71
2022-08-19T15:41:37.261Z,41.26
2022-08-19T15:44:10.277Z,41.25
2022-08-19T15:46:40.994Z,41.46
2022-08-19T15:49:10.484Z,40.70
2022-08-19T15:51:41.294Z,41.03
2022-08-19T15:54:13.050Z,41.43
2022-08-19T15:56:59.735Z,41.89
2022-08-19T15:59:47.766Z,42.20
2022-08-19T16:02:37.387Z,42.34
2022-08-19T16:05:27.588Z,42.49
2022-08-19T16:07:56.966Z,43.13
2022-08-19T16:10:27.256Z,42.59
2022-08-19T16:12:57.980Z,42.70
2022-08-19T16:15:28.027Z,42.32
2022-08-19T16:17:58.056Z,42.50
2022-08-19T16:20:28.088Z,42.41
2022-08-19T16:22:58.589Z,42.78
2022-08-19T16:25:29.458Z,42.90
2022-08-19T16:28:07.719Z,43.32
2022-08-19T16:30:39.123Z,43.47
2022-08-19T16:33:08.530Z,43.99
2022-08-19T16:35:37.023Z,44.39
2022-08-19T16:38:07.231Z,44.62
2022-08-19T16:40:35.946Z,44.85
2022-08-19T16:43:04.818Z,45.15
2022-08-19T16:45:32.973Z,45.41
2022-08-19T16:48:00.847Z,45.60
2022-08-19T16:50:48.385Z,45.80
2022-08-19T16:53:25.800Z,45.98
2022-08-19T16:55:58.523Z,46.19
2022-08-19T16:58:29.626Z,46.33
2022-08-19T17:01:03.236Z,46.34
2022-08-19T17:03:35.995Z,46.37
2022-08-19T17:06:26.154Z,46.48
2022-08-19T17:08:58.858Z,46.72
2022-08-19T17:11:28.716Z,46.70
2022-08-19T17:13:59.107Z,46.76
2022-08-19T17:16:29.788Z,46.70
2022-08-19T17:18:59.854Z,46.82
2022-08-19T17:21:32.508Z,46.81
2022-08-19T17:24:01.996Z,47.21
2022-08-19T17:26:30.630Z,47.21
2022-08-19T17:29:00.426Z,47.34
2022-08-19T17:31:33.744Z,47.50
2022-08-19T17:34:03.607Z,47.72
2022-08-19T17:36:34.234Z,47.69
2022-08-19T17:39:05.060Z,48.01
2022-08-19T17:41:34.552Z,47.96
2022-08-19T17:44:03.980Z,48.07
2022-08-19T17:46:32.563Z,48.36
2022-08-19T17:49:00.960Z,48.58
2022-08-19T17:51:36.088Z,48.71
2022-08-19T17:54:06.808Z,48.70
2022-08-19T17:56:34.745Z,48.80
2022-08-19T17:59:02.782Z,48.98
2022-08-19T18:01:44.018Z,49.13
2022-08-19T18:04:25.300Z,49.38
2022-08-19T18:06:55.833Z,49.54
2022-08-19T18:09:30.043Z,49.75
2022-08-19T18:12:13.296Z,49.94
2022-08-19T18:14:46.293Z,49.93
2022-08-19T18:17:18.284Z,50.20
2022-08-19T18:19:47.827Z,50.23
2022-08-19T18:22:29.920Z,50.25
2022-08-19T18:24:58.709Z,50.31
2022-08-19T18:27:27.853Z,50.46
2022-08-19T18:29:59.587Z,50.58
2022-08-19T18:32:34.088Z,50.66
2022-08-19T18:35:05.033Z,50.84
2022-08-19T18:37:33.048Z,50.92
2022-08-19T18:40:30.172Z,51.06
2022-08-19T18:43:17.008Z,51.11
2022-08-19T18:46:03.877Z,51.13
2022-08-19T18:48:55.101Z,51.26
2022-08-19T18:51:28.152Z,51.24
2022-08-19T18:53:58.988Z,51.45
2022-08-19T18:56:32.576Z,51.24
2022-08-19T18:59:03.969Z,51.30
2022-08-19T19:01:39.910Z,51.35
2022-08-19T19:04:12.309Z,51.61
2022-08-19T19:06:42.795Z,51.46
2022-08-19T19:09:19.678Z,51.58
2022-08-19T19:12:01.685Z,51.69
2022-08-19T19:14:49.110Z,51.80
2022-08-19T19:17:18.419Z,51.77
2022-08-19T19:19:50.126Z,51.80
2022-08-19T19:22:21.924Z,51.64
2022-08-19T19:24:50.938Z,51.56
2022-08-19T19:27:23.549Z,51.72
2022-08-19T19:29:56.929Z,51.83
2022-08-19T19:32:36.928Z,51.73
2022-08-19T19:35:10.602Z,51.86
2022-08-19T19:37:38.718Z,51.92
2022-08-19T19:40:07.425Z,51.91
2022-08-19T19:42:35.414Z,51.88
2022-08-19T19:45:03.900Z,51.96
2022-08-19T19:47:32.091Z,51.76
2022-08-19T19:50:16.407Z,51.96
2022-08-19T19:52:50.979Z,52.10
2022-08-19T19:55:20.172Z,52.15
2022-08-19T19:57:49.801Z,52.11
2022-08-19T20:00:19.293Z,52.20
2022-08-19T20:02:50.379Z,52.35
2022-08-19T20:05:21.722Z,52.67
2022-08-19T20:08:11.655Z,52.60
2022-08-19T20:10:42.577Z,52.69
2022-08-19T20:13:11.160Z,52.76
2022-08-19T20:15:43.664Z,52.95
2022-08-19T20:18:14.671Z,52.95
2022-08-19T20:20:43.744Z,53.01
2022-08-19T20:23:11.633Z,53.29
2022-08-19T20:25:39.693Z,53.17
2022-08-19T20:28:09.989Z,53.51
2022-08-19T20:30:43.761Z,53.53
2022-08-19T20:33:15.559Z,53.61
2022-08-19T20:35:45.733Z,53.53
2022-08-19T20:38:13.852Z,53.72
2022-08-19T20:40:41.911Z,53.78
2022-08-19T20:43:12.189Z,53.85
2022-08-19T20:45:40.635Z,53.83
2022-08-19T20:48:10.606Z,54.02
2022-08-19T20:50:39.735Z,54.10
2022-08-19T20:53:17.637Z,53.95
2022-08-19T20:55:52.024Z,54.21
2022-08-19T20:58:23.078Z,54.17
2022-08-19T21:00:55.933Z,54.22
2022-08-19T21:03:27.786Z,54.07
2022-08-19T21:05:57.142Z,54.30
2022-08-19T21:08:27.812Z,54.39
2022-08-19T21:10:57.022Z,54.29
2022-08-19T21:13:26.095Z,54.40
2022-08-19T21:15:54.310Z,54.24
2022-08-19T21:18:23.784Z,54.56
2022-08-19T21:20:52.030Z,54.43
2022-08-19T21:23:27.351Z,54.69
2022-08-19T21:25:58.410Z,54.78
2022-08-19T21:28:34.275Z,54.84
2022-08-19T21:31:10.610Z,54.78
2022-08-19T21:33:39.019Z,54.80
2022-08-19T21:36:07.612Z,54.79
2022-08-19T21:38:36.464Z,55.07
2022-08-19T21:41:06.544Z,55.00
2022-08-19T21:43:36.564Z,55.22
2022-08-19T21:46:05.593Z,55.01
2022-08-19T21:48:33.869Z,55.19
2022-08-19T21:51:01.711Z,55.24
2022-08-19T21:53:34.158Z,55.18
2022-08-19T21:56:04.073Z,55.38
2022-08-19T21:58:32.245Z,55.53
2022-08-19T22:01:02.183Z,55.35
2022-08-19T22:03:31.138Z,55.38
2022-08-19T22:05:59.125Z,55.58
2022-08-19T22:08:27.415Z,55.69
2022-08-19T22:10:55.437Z,55.84
2022-08-19T22:13:24.850Z,55.74
2022-08-19T22:15:55.183Z,55.99
2022-08-19T22:18:23.081Z,56.03
2022-08-19T22:20:51.365Z,56.01
2022-08-19T22:23:19.510Z,56.05
2022-08-19T22:25:48.887Z,56.13
2022-08-19T22:28:18.971Z,56.40
2022-08-19T22:30:56.404Z,56.41
2022-08-19T22:33:26.363Z,56.45
2022-08-19T22:35:54.220Z,56.41
2022-08-19T22:38:23.159Z,56.55
2022-08-19T22:40:52.753Z,56.79
2022-08-19T22:43:24.889Z,56.85
2022-08-19T22:45:55.264Z,56.86
2022-08-19T22:48:26.065Z,57.00
2022-08-19T22:51:13.933Z,57.11
2022-08-19T22:53:45.741Z,57.39
2022-08-19T22:56:17.611Z,57.39
2022-08-19T22:58:47.235Z,57.79
2022-08-19T23:01:24.878Z,57.79
2022-08-19T23:04:03.619Z,58.09
2022-08-19T23:06:34.644Z,58.29
2022-08-19T23:09:07.308Z,58.53
2022-08-19T23:11:41.953Z,58.68
2022-08-19T23:14:11.454Z,58.62
2022-08-19T23:16:41.689Z,58.78
2022-08-19T23:19:10.697Z,58.79
2022-08-19T23:21:41.589Z,58.97
2022-08-19T23:24:10.132Z,59.12
2022-08-19T23:26:38.530Z,59.37
2022-08-19T23:29:25.418Z,59.51
2022-08-19T23:31:53.760Z,59.49
2022-08-19T23:34:22.255Z,59.32
2022-08-19T23:36:50.998Z,59.14
2022-08-19T23:39:19.534Z,59.52
2022-08-19T23:41:47.966Z,59.70
2022-08-19T23:44:15.803Z,59.52
2022-08-19T23:46:54.779Z,60.16
2022-08-19T23:49:25.223Z,60.33
2022-08-19T23:51:54.857Z,60.56
2022-08-19T23:54:32.024Z,60.85
2022-08-19T23:57:13.204Z,61.08
2022-08-19T23:59:45.774Z,61.50
